Time;durP1;ratioP1;P1;durP2;ratioP2;P2;SDS_P1;SDS_P2;PMS_P1;PMS_P2;Temp;Humidity;BMP_temperature;BMP_pressure;BME280_temperature;BME280_humidity;BME280_pressure;Samples;Min_cycle;Max_cycle;Signal;HPM_P1;HPM_P2
2022/06/25 00:01:14;;;;;;;13.00;7.28;;;;;;;19.18;63.78;99557.13;5016510;28;20436;-48
2022/06/25 00:03:39;;;;;;;13.48;6.40;;;;;;;19.17;63.77;99563.34;5028470;28;20053;-44
2022/06/25 00:06:06;;;;;;;14.13;7.13;;;;;;;19.15;64.04;99559.97;5011773;28;20048;-46
2022/06/25 00:08:33;;;;;;;10.10;6.20;;;;;;;19.14;64.08;99566.19;5030843;28;20087;-47
2022/06/25 00:10:59;;;;;;;7.75;5.30;;;;;;;19.10;64.04;99565.59;5030660;28;20596;-46
2022/06/25 00:13:25;;;;;;;13.88;6.60;;;;;;;19.10;64.05;99565.59;5031133;28;20398;-45
2022/06/25 00:15:51;;;;;;;8.65;4.18;;;;;;;19.11;64.08;99577.78;5014832;28;20080;-46
2022/06/25 00:18:17;;;;;;;14.30;6.47;;;;;;;19.10;64.23;99572.66;5028460;28;20037;-47
2022/06/25 00:20:44;;;;;;;76.00;43.25;;;;;;;19.08;64.34;99574.53;5062036;28;20107;-46
2022/06/25 00:23:10;;;;;;;15.30;9.10;;;;;;;19.07;64.31;99583.38;5030248;28;20091;-48
2022/06/25 00:25:36;;;;;;;14.35;6.60;;;;;;;18.97;64.40;99567.38;5025907;28;20049;-44
2022/06/25 00:28:02;;;;;;;13.85;6.65;;;;;;;18.97;64.57;99578.78;4994217;28;20041;-46
2022/06/25 00:30:28;;;;;;;13.35;6.97;;;;;;;19.01;64.58;99592.56;5010491;28;20708;-46
2022/06/25 00:32:55;;;;;;;13.63;6.90;;;;;;;19.00;64.72;99593.50;5024505;28;20050;-49
2022/06/25 00:35:20;;;;;;;21.25;9.05;;;;;;;18.99;64.64;99594.47;5023548;28;20128;-47
2022/06/25 00:37:46;;;;;;;17.02;7.00;;;;;;;18.98;64.84;99598.06;5030855;28;20410;-45
2022/06/25 00:40:12;;;;;;;17.95;8.10;;;;;;;18.97;65.04;99599.00;5031315;28;20052;-47
2022/06/25 00:42:44;;;;;;;18.83;7.40;;;;;;;18.96;65.15;99611.34;5029158;28;20041;-46
2022/06/25 00:45:11;;;;;;;26.70;7.85;;;;;;;18.92;65.37;99603.75;5030087;28;20045;-45
2022/06/25 00:47:36;;;;;;;16.42;8.00;;;;;;;18.85;65.67;99592.78;5012928;28;20531;-44
2022/06/25 00:50:02;;;;;;;18.48;7.53;;;;;;;18.79;65.71;99593.22;5012786;28;20069;-46
2022/06/25 00:52:33;;;;;;;22.25;7.15;;;;;;;18.91;65.65;99615.25;5020468;28;20041;-45
2022/06/25 00:55:05;;;;;;;22.38;9.70;;;;;;;18.90;65.76;99617.03;5027209;28;20525;-45
2022/06/25 00:57:32;;;;;;;15.98;7.32;;;;;;;18.89;65.87;99622.44;5012375;28;20538;-45
2022/06/25 01:00:01;;;;;;;19.70;8.30;;;;;;;18.90;65.83;99624.09;5029619;28;20048;-48
2022/06/25 01:02:30;;;;;;;22.50;8.45;;;;;;;18.89;65.80;99623.25;5021563;28;20173;-45
2022/06/25 01:04:56;;;;;;;23.25;7.82;;;;;;;18.82;65.83;99615.88;5024932;28;20045;-45
2022/06/25 01:07:23;;;;;;;20.15;8.57;;;;;;;18.75;65.95;99606.72;5030423;28;20045;-48
2022/06/25 01:09:49;;;;;;;18.45;8.02;;;;;;;18.88;66.24;99626.84;5028177;28;20048;-45
2022/06/25 01:12:15;;;;;;;18.67;6.93;;;;;;;18.88;66.26;99632.13;5026934;28;20136;-44
2022/06/25 01:14:42;;;;;;;22.73;7.55;;;;;;;18.88;66.26;99631.28;5029540;28;20585;-44
2022/06/25 01:17:09;;;;;;;21.27;7.55;;;;;;;18.86;66.55;99631.38;5029115;28;20139;-45
2022/06/25 01:19:36;;;;;;;18.60;8.60;;;;;;;18.86;66.55;99636.63;5037068;28;20129;-46
2022/06/25 01:22:03;;;;;;;22.40;7.57;;;;;;;18.87;66.64;99637.47;5023378;28;20087;-47
2022/06/25 01:24:30;;;;;;;24.38;7.90;;;;;;;18.86;66.80;99648.97;5027532;28;20041;-44
2022/06/25 01:26:55;;;;;;;17.38;7.85;;;;;;;18.86;66.93;99646.31;5029059;28;20044;-43
2022/06/25 01:29:21;;;;;;;26.98;8.07;;;;;;;18.84;67.05;99651.69;5015698;28;20041;-45
2022/06/25 01:31:47;;;;;;;16.05;6.80;;;;;;;18.86;67.07;99644.53;5010559;28;20079;-45
2022/06/25 01:34:13;;;;;;;22.05;7.90;;;;;;;18.83;66.88;99639.50;5042400;28;20522;-44
2022/06/25 01:36:39;;;;;;;15.93;7.47;;;;;;;18.86;66.69;99649.81;5009460;28;20037;-47
2022/06/25 01:39:05;;;;;;;15.80;7.13;;;;;;;18.86;66.86;99649.81;5030322;28;20055;-47
2022/06/25 01:41:30;;;;;;;17.83;6.88;;;;;;;18.86;66.78;99647.19;5028802;28;20033;-48
2022/06/25 01:43:56;;;;;;;14.82;6.75;;;;;;;18.77;66.96;99637.28;5030296;28;20527;-50
2022/06/25 01:46:22;;;;;;;18.38;6.95;;;;;;;18.87;67.06;99666.47;5029228;28;20517;-48
2022/06/25 01:48:48;;;;;;;16.05;6.65;;;;;;;18.87;67.21;99661.19;5029940;28;20037;-49
2022/06/25 01:51:16;;;;;;;22.17;6.90;;;;;;;18.87;67.31;99662.03;5012598;28;20042;-45
2022/06/25 01:53:42;;;;;;;18.17;7.40;;;;;;;18.87;67.47;99662.03;5010331;28;20137;-50
2022/06/25 01:56:10;;;;;;;22.50;6.55;;;;;;;18.87;67.28;99661.19;5029776;28;20093;-49
2022/06/25 01:58:37;;;;;;;22.10;6.65;;;;;;;18.87;67.56;99653.28;5025289;28;20616;-46
2022/06/25 02:01:04;;;;;;;22.55;7.40;;;;;;;18.87;67.65;99662.03;5028731;28;20492;-46
2022/06/25 02:03:30;;;;;;;14.52;7.03;;;;;;;18.87;67.73;99659.41;5008647;28;20426;-45
2022/06/25 02:05:59;;;;;;;17.75;6.80;;;;;;;18.88;67.61;99663.72;5018458;28;20037;-45
2022/06/25 02:08:29;;;;;;;15.25;6.60;;;;;;;18.91;67.63;99662.66;5026465;28;20433;-44
2022/06/25 02:10:55;;;;;;;20.40;7.22;;;;;;;18.89;67.67;99660.13;5012310;28;20088;-44
2022/06/25 02:13:21;;;;;;;16.30;7.47;;;;;;;18.93;67.69;99668.69;5020626;28;20030;-45
2022/06/25 02:15:47;;;;;;;18.48;8.02;;;;;;;18.90;67.94;99667.09;5028935;28;20084;-47
2022/06/25 02:18:13;;;;;;;22.23;7.63;;;;;;;18.96;67.91;99671.09;5028352;28;20203;-43
2022/06/25 02:20:39;;;;;;;18.67;8.80;;;;;;;18.98;68.06;99661.31;5022677;28;20124;-45
2022/06/25 02:23:07;;;;;;;13.98;7.00;;;;;;;18.99;67.96;99658.56;5010606;28;20472;-47
2022/06/25 02:25:33;;;;;;;16.90;7.30;;;;;;;19.00;67.96;99665.50;5010288;28;20069;-45
2022/06/25 02:27:59;;;;;;;17.30;7.55;;;;;;;19.02;68.07;99663.63;5024254;28;20041;-46
2022/06/25 02:30:25;;;;;;;12.43;6.82;;;;;;;19.05;68.16;99660.75;5017496;28;20499;-46
2022/06/25 02:32:52;;;;;;;15.52;7.35;;;;;;;19.08;68.08;99667.63;5019810;28;20069;-46
2022/06/25 02:35:18;;;;;;;16.65;7.15;;;;;;;19.12;67.99;99668.25;5032187;28;20443;-44
2022/06/25 02:37:44;;;;;;;14.55;7.00;;;;;;;19.14;68.10;99666.34;5048459;28;20045;-46
2022/06/25 02:40:13;;;;;;;16.38;7.43;;;;;;;19.16;67.99;99665.28;5032075;28;20100;-45
2022/06/25 02:42:41;;;;;;;16.65;7.22;;;;;;;19.19;67.83;99667.72;5031908;28;20049;-45
2022/06/25 02:45:08;;;;;;;14.85;6.68;;;;;;;19.16;67.74;99659.16;5033369;28;20072;-45
2022/06/25 02:47:37;;;;;;;18.27;7.25;;;;;;;19.26;67.62;99662.88;5044027;28;20076;-44
2022/06/25 02:50:08;;;;;;;12.85;6.57;;;;;;;19.29;67.28;99673.19;5015477;28;20064;-46
2022/06/25 02:52:34;;;;;;;14.20;6.28;;;;;;;19.25;67.30;99653.28;5012362;28;20537;-44
2022/06/25 02:55:00;;;;;;;15.30;6.47;;;;;;;19.36;67.20;99672.66;5002383;28;20064;-47
2022/06/25 03:00:22;;;;;;;16.30;6.65;;;;;;;19.45;66.65;99674.66;5031643;28;20045;-44
2022/06/25 03:02:49;;;;;;;13.23;6.25;;;;;;;19.48;66.53;99676.22;5026570;28;20485;-45
2022/06/25 03:05:14;;;;;;;14.18;6.13;;;;;;;19.52;66.38;99684.78;5031785;28;20048;-45
2022/06/25 03:07:40;;;;;;;12.20;6.05;;;;;;;19.45;66.24;99669.41;5030975;28;20048;-42
2022/06/25 03:10:07;;;;;;;9.90;5.82;;;;;;;19.59;66.20;99692.13;5022672;28;20505;-44
2022/06/25 03:12:33;;;;;;;11.18;5.63;;;;;;;19.55;66.05;99677.50;5018741;28;20044;-48
2022/06/25 03:15:17;;;;;;;11.63;5.80;;;;;;;19.67;65.90;99697.72;5014961;28;20640;-44
2022/06/25 03:17:44;;;;;;;10.43;5.60;;;;;;;19.72;65.63;99694.75;5025176;28;20099;-44
2022/06/25 03:20:28;;;;;;;11.48;5.65;;;;;;;19.70;65.52;99681.66;5011916;28;20340;-44
2022/06/25 03:22:57;;;;;;;12.10;5.80;;;;;;;19.80;65.48;99687.97;5001394;28;20049;-44
2022/06/25 03:25:23;;;;;;;9.70;5.65;;;;;;;19.80;65.44;99684.47;5031415;28;20047;-46
2022/06/25 03:27:49;;;;;;;9.05;6.35;;;;;;;19.76;65.30;99677.75;5024208;28;20502;-46
2022/06/25 03:30:16;;;;;;;9.77;5.15;;;;;;;19.96;65.21;99697.41;5011707;28;20045;-45
2022/06/25 03:32:43;;;;;;;7.15;5.10;;;;;;;20.00;64.63;99706.78;5017610;28;20124;-46
2022/06/25 03:35:21;;;;;;;9.40;5.28;;;;;;;20.06;64.50;99701.91;5026710;28;20092;-45
2022/06/25 03:38:02;;;;;;;9.00;4.80;;;;;;;20.10;64.33;99711.28;5029397;28;20114;-45
2022/06/25 03:40:28;;;;;;;13.05;5.90;;;;;;;20.15;64.24;99709.13;5031156;28;20505;-45
2022/06/25 03:42:54;;;;;;;9.77;5.13;;;;;;;20.18;64.01;99711.56;5007036;28;20188;-48
2022/06/25 03:45:20;;;;;;;9.50;5.30;;;;;;;20.25;63.70;99706.69;5011527;28;20136;-48
2022/06/25 03:47:50;;;;;;;11.30;4.70;;;;;;;20.22;63.47;99691.06;5028678;28;20045;-46
2022/06/25 03:50:17;;;;;;;9.55;5.25;;;;;;;20.26;63.41;99705.72;5011375;28;20033;-45
2022/06/25 03:52:45;;;;;;;13.23;4.63;;;;;;;20.41;63.29;99711.72;4995697;28;20073;-46
2022/06/25 03:55:13;;;;;;;9.05;4.82;;;;;;;20.44;63.38;99714.09;5020271;28;20048;-47
2022/06/25 03:57:39;;;;;;;8.75;4.50;;;;;;;20.41;63.11;99706.44;5000313;28;20041;-46
2022/06/25 04:00:18;;;;;;;8.55;4.75;;;;;;;20.57;62.77;99722.78;5029909;28;20052;-45
2022/06/25 04:02:54;;;;;;;10.38;4.15;;;;;;;20.61;62.58;99727.75;5030315;28;20421;-47
2022/06/25 04:05:39;;;;;;;7.55;3.97;;;;;;;20.64;62.16;99724.88;5031763;28;20041;-45
2022/06/25 04:08:34;;;;;;;12.32;4.88;;;;;;;20.70;61.95;99713.00;5026506;28;20077;-48
2022/06/25 04:11:02;;;;;;;6.25;3.78;;;;;;;20.74;61.73;99722.38;5030667;28;20124;-48
2022/06/25 04:13:29;;;;;;;6.88;4.10;;;;;;;20.66;61.34;99701.84;5030399;28;20037;-45
2022/06/25 04:15:55;;;;;;;8.43;4.10;;;;;;;20.84;61.41;99726.00;5010007;28;20469;-48
2022/06/25 04:18:21;;;;;;;8.65;4.45;;;;;;;20.89;61.13;99731.78;5020309;28;20091;-53
2022/06/25 04:20:49;;;;;;;5.82;3.90;;;;;;;20.95;60.90;99733.13;5030214;28;20037;-46
2022/06/25 04:23:15;;;;;;;5.15;3.95;;;;;;;21.02;60.77;99732.53;5030253;28;20041;-49
2022/06/25 04:25:43;;;;;;;4.85;3.75;;;;;;;21.07;60.60;99726.91;5059121;28;20067;-48
2022/06/25 04:30:57;;;;;;;6.43;4.13;;;;;;;21.24;59.78;99730.94;5020982;28;20053;-44
2022/06/25 04:33:24;;;;;;;6.72;4.00;;;;;;;21.32;59.52;99739.94;5046138;28;20037;-45
2022/06/25 04:36:00;;;;;;;6.68;4.28;;;;;;;21.33;59.20;99736.34;5043469;28;20053;-45
2022/06/25 04:38:47;;;;;;;9.30;4.15;;;;;;;21.47;59.17;99738.75;5028038;28;20052;-45
2022/06/25 04:41:13;;;;;;;7.38;4.15;;;;;;;21.54;59.08;99739.94;5029804;28;20091;-44
2022/06/25 04:43:38;;;;;;;8.82;4.80;;;;;;;21.61;58.84;99734.19;5027709;28;20034;-47
2022/06/25 04:46:10;;;;;;;6.55;4.65;;;;;;;21.59;58.52;99723.72;5029841;28;20045;-45
2022/06/25 04:48:39;;;;;;;5.57;3.55;;;;;;;21.66;58.10;99729.38;5009741;28;20571;-46
2022/06/25 04:51:07;;;;;;;5.93;3.72;;;;;;;21.82;58.09;99743.91;5011318;28;20049;-46
2022/06/25 04:53:33;;;;;;;6.20;3.83;;;;;;;21.87;58.09;99747.03;5026873;28;20037;-47
2022/06/25 04:55:59;;;;;;;5.25;3.55;;;;;;;21.93;57.40;99743.88;5023669;28;20041;-46
2022/06/25 04:58:25;;;;;;;5.72;3.55;;;;;;;22.01;57.16;99745.94;5014954;28;20079;-46
2022/06/25 05:01:14;;;;;;;11.55;6.15;;;;;;;22.10;56.86;99750.50;5011172;28;20176;-44
2022/06/25 05:03:39;;;;;;;6.43;3.60;;;;;;;22.12;56.70;99740.63;5014819;28;20124;-45
2022/06/25 05:06:09;;;;;;;6.72;4.10;;;;;;;22.26;56.06;99756.22;5028306;28;20069;-47
2022/06/25 05:08:35;;;;;;;7.20;4.40;;;;;;;22.33;56.10;99759.22;5041399;28;20067;-44
2022/06/25 05:11:02;;;;;;;7.20;4.45;;;;;;;22.42;55.89;99761.13;5019211;28;20044;-46
2022/06/25 05:13:27;;;;;;;7.50;3.72;;;;;;;22.48;55.82;99757.13;5023038;28;20056;-45
2022/06/25 05:15:53;;;;;;;9.13;5.18;;;;;;;22.57;55.96;99761.66;5021179;28;20041;-49
2022/06/25 05:18:19;;;;;;;7.97;4.20;;;;;;;22.57;55.76;99749.25;5030138;28;20041;-47
2022/06/25 05:20:46;;;;;;;7.78;4.25;;;;;;;22.75;55.34;99773.44;5029200;28;20475;-46
2022/06/25 05:23:12;;;;;;;8.55;4.97;;;;;;;22.85;54.31;99770.84;5027796;28;20057;-47
2022/06/25 05:25:39;;;;;;;7.15;3.63;;;;;;;22.93;53.83;99755.13;5037957;28;20037;-45
2022/06/25 05:28:06;;;;;;;5.68;3.25;;;;;;;23.01;53.37;99771.25;5044923;28;20179;-46
2022/06/25 05:30:32;;;;;;;6.32;3.28;;;;;;;23.07;53.49;99765.44;5019877;28;20566;-45
2022/06/25 05:32:58;;;;;;;5.88;4.22;;;;;;;23.15;52.88;99771.75;5018640;28;20178;-45
2022/06/25 05:35:24;;;;;;;5.50;3.53;;;;;;;23.07;52.75;99752.16;5045696;28;20075;-45
2022/06/25 05:37:50;;;;;;;5.43;4.10;;;;;;;23.31;52.60;99775.75;5024256;28;20038;-45
2022/06/25 05:40:16;;;;;;;7.57;4.18;;;;;;;23.40;52.13;99772.31;5026556;28;20033;-50
2022/06/25 05:42:43;;;;;;;16.85;4.47;;;;;;;23.48;52.09;99776.03;5026274;28;20041;-46
2022/06/25 05:45:09;;;;;;;8.57;4.60;;;;;;;23.59;51.48;99783.06;5013998;28;20045;-46
2022/06/25 05:47:35;;;;;;;7.30;3.83;;;;;;;23.69;51.18;99781.28;5009403;28;20048;-47
2022/06/25 05:50:01;;;;;;;5.88;4.20;;;;;;;23.75;50.81;99767.50;5025660;28;20037;-45
2022/06/25 05:52:26;;;;;;;10.27;4.78;;;;;;;23.89;50.52;99777.72;5028859;28;20063;-48
2022/06/25 05:54:52;;;;;;;10.18;5.00;;;;;;;24.03;50.73;99779.16;5018273;28;20128;-47
2022/06/25 05:57:19;;;;;;;7.75;4.18;;;;;;;24.16;50.72;99781.59;5023598;28;20525;-45
2022/06/25 05:59:45;;;;;;;6.65;4.00;;;;;;;24.28;50.42;99772.56;5014582;28;20136;-47
2022/06/25 06:02:11;;;;;;;7.30;5.32;;;;;;;24.36;49.61;99773.53;5010181;28;20054;-45
2022/06/25 06:04:37;;;;;;;12.55;5.05;;;;;;;24.45;48.91;99772.69;5021194;28;20064;-46
2022/06/25 06:07:03;;;;;;;7.13;4.15;;;;;;;24.41;48.87;99759.84;5024859;28;20519;-47
2022/06/25 06:09:29;;;;;;;11.05;4.55;;;;;;;24.51;48.67;99757.16;5032608;28;20041;-46
2022/06/25 06:11:55;;;;;;;7.38;4.93;;;;;;;24.75;48.25;99781.53;5032715;28;20421;-48
2022/06/25 06:14:25;;;;;;;6.15;4.20;;;;;;;24.82;48.10;99782.63;5032289;28;20132;-45
2022/06/25 06:16:50;;;;;;;7.45;4.47;;;;;;;24.92;47.86;99785.31;5011983;28;20136;-43
2022/06/25 06:19:16;;;;;;;7.22;4.45;;;;;;;25.06;47.84;99787.56;5020300;28;20156;-45
2022/06/25 06:21:42;;;;;;;12.20;4.63;;;;;;;25.16;47.64;99778.59;5033877;28;20138;-47
2022/06/25 06:24:08;;;;;;;6.65;5.10;;;;;;;25.31;47.07;99787.78;5029550;28;20056;-46
2022/06/25 06:26:34;;;;;;;9.13;5.00;;;;;;;25.44;47.12;99784.81;5029668;28;20053;-48
2022/06/25 06:29:00;;;;;;;9.95;5.18;;;;;;;25.57;46.31;99780.03;5021917;28;20038;-49
2022/06/25 06:31:27;;;;;;;7.88;4.47;;;;;;;25.72;45.86;99788.38;5017070;28;20038;-46
2022/06/25 06:33:52;;;;;;;7.93;5.15;;;;;;;25.88;45.80;99780.59;5027973;28;20051;-46
2022/06/25 06:36:18;;;;;;;8.10;4.97;;;;;;;26.04;45.36;99785.28;5031941;28;20041;-48
2022/06/25 06:38:44;;;;;;;5.55;4.10;;;;;;;26.19;44.39;99777.63;5033151;28;20041;-47
2022/06/25 06:41:09;;;;;;;5.50;4.25;;;;;;;26.39;44.22;99784.53;5030613;28;20045;-47
2022/06/25 06:43:36;;;;;;;8.55;5.30;;;;;;;26.81;43.64;99779.44;5020060;28;20040;-47
2022/06/25 06:46:03;;;;;;;7.70;5.00;;;;;;;27.53;41.91;99784.50;5030064;28;20120;-46
2022/06/25 06:48:28;;;;;;;6.30;4.32;;;;;;;28.44;39.98;99774.88;5033309;28;20132;-47
2022/06/25 06:50:54;;;;;;;6.40;4.60;;;;;;;29.48;38.03;99781.25;5032705;28;20087;-49
2022/06/25 06:53:21;;;;;;;9.27;3.80;;;;;;;30.59;35.92;99781.13;5032149;28;20049;-47
2022/06/25 06:55:47;;;;;;;6.20;5.03;;;;;;;31.67;34.03;99784.38;5024421;28;20045;-49
2022/06/25 06:58:13;;;;;;;6.28;3.90;;;;;;;32.77;32.16;99794.84;5031685;28;20041;-48
2022/06/25 07:00:39;;;;;;;7.07;4.20;;;;;;;33.83;30.59;99787.59;5031365;28;20108;-47
2022/06/25 07:03:05;;;;;;;5.03;4.18;;;;;;;34.80;29.03;99801.66;5029975;28;20049;-47
2022/06/25 07:05:30;;;;;;;7.90;4.55;;;;;;;35.68;28.19;99800.41;5031664;28;20127;-48
2022/06/25 07:07:56;;;;;;;5.90;3.90;;;;;;;36.50;26.04;99789.66;5061287;28;20051;-49
2022/06/25 07:10:22;;;;;;;5.13;3.55;;;;;;;37.32;25.14;99793.25;5013196;28;20046;-48
2022/06/25 07:12:48;;;;;;;10.45;4.00;;;;;;;38.15;24.08;99786.31;5030987;28;20041;-47
2022/06/25 07:15:14;;;;;;;3.70;3.40;;;;;;;38.98;23.22;99796.44;5029531;28;20041;-48
2022/06/25 07:17:39;;;;;;;6.25;3.88;;;;;;;39.77;22.28;99795.06;5027367;28;20139;-46
2022/06/25 07:20:06;;;;;;;5.03;3.88;;;;;;;40.49;21.52;99798.97;5014929;28;20571;-46
2022/06/25 07:22:32;;;;;;;6.38;3.88;;;;;;;41.04;20.74;99796.44;5014322;28;20045;-46
2022/06/25 07:24:58;;;;;;;10.40;4.97;;;;;;;41.73;20.40;99796.09;5030726;28;20111;-48
2022/06/25 07:27:25;;;;;;;5.72;4.18;;;;;;;42.32;19.96;99801.78;5030004;28;20902;-46
2022/06/25 07:29:51;;;;;;;6.43;4.43;;;;;;;42.89;19.49;99799.34;5031379;28;20045;-47
2022/06/25 07:32:17;;;;;;;10.60;4.32;;;;;;;43.33;18.74;99792.59;5029680;28;20042;-45
2022/06/25 07:34:42;;;;;;;4.40;4.00;;;;;;;43.48;18.30;99784.50;5021452;28;20527;-47
2022/06/25 07:37:08;;;;;;;5.53;4.63;;;;;;;43.93;18.04;99788.56;5029179;28;20041;-46
2022/06/25 07:39:37;;;;;;;20.60;12.80;;;;;;;44.32;17.44;99786.25;5028463;28;20429;-46
2022/06/25 07:42:03;;;;;;;13.77;11.27;;;;;;;44.70;17.25;99787.72;5029461;28;20043;-48
2022/06/25 07:44:29;;;;;;;5.35;4.13;;;;;;;44.89;16.70;99788.81;5060723;28;20578;-49
2022/06/25 07:46:54;;;;;;;7.32;5.80;;;;;;;45.08;16.35;99791.81;5029672;28;20525;-50
2022/06/25 07:49:20;;;;;;;8.20;5.25;;;;;;;45.23;15.94;99788.22;5030409;28;20064;-48
2022/06/25 07:52:00;;;;;;;4.75;4.13;;;;;;;45.26;15.65;99769.28;5029824;28;20513;-49
2022/06/25 07:54:28;;;;;;;6.00;4.40;;;;;;;45.59;16.02;99772.53;5026334;28;20209;-45
2022/06/25 07:56:54;;;;;;;5.85;4.18;;;;;;;45.83;15.89;99784.53;5029444;28;20104;-50
2022/06/25 07:59:20;;;;;;;7.20;4.55;;;;;;;46.09;15.73;99775.06;5029190;28;20532;-50
2022/06/25 08:01:46;;;;;;;6.43;4.53;;;;;;;46.42;15.58;99784.53;5019126;28;1232652;-49
2022/06/25 08:04:12;;;;;;;7.65;4.20;;;;;;;46.34;15.41;99787.88;5031252;28;20048;-49
2022/06/25 08:06:39;;;;;;;4.38;4.00;;;;;;;45.30;15.94;99778.63;5030705;28;20041;-53
2022/06/25 08:09:05;;;;;;;5.13;4.63;;;;;;;45.55;15.60;99772.25;5029571;28;20075;-49
2022/06/25 08:11:31;;;;;;;11.50;5.15;;;;;;;46.01;15.92;99786.63;5031010;28;20157;-48
2022/06/25 08:13:57;;;;;;;5.82;3.40;;;;;;;45.39;15.88;99787.09;5029572;28;20071;-47
2022/06/25 08:16:25;;;;;;;4.82;3.45;;;;;;;43.93;16.92;99777.59;5010429;28;20556;-50
2022/06/25 08:18:52;;;;;;;6.60;3.60;;;;;;;44.04;16.79;99756.53;5024683;28;20124;-48
2022/06/25 08:21:18;;;;;;;7.50;4.20;;;;;;;44.87;16.33;99770.94;5030155;28;20052;-51
2022/06/25 08:23:44;;;;;;;8.57;4.20;;;;;;;45.56;16.02;99760.16;5030613;28;20527;-46
2022/06/25 08:26:10;;;;;;;7.30;3.70;;;;;;;46.37;15.09;99768.06;5028720;28;20049;-52
2022/06/25 08:28:36;;;;;;;5.03;3.63;;;;;;;46.66;15.15;99781.88;5025664;28;20077;-47
2022/06/25 08:31:03;;;;;;;7.43;4.57;;;;;;;44.73;16.67;99749.56;5029722;28;20078;-47
2022/06/25 08:33:30;;;;;;;7.53;3.72;;;;;;;45.18;16.19;99764.34;5029855;28;20144;-50
2022/06/25 08:35:56;;;;;;;4.00;3.70;;;;;;;45.67;15.27;99764.53;5029300;28;20390;-49
2022/06/25 08:38:21;;;;;;;8.48;4.30;;;;;;;46.48;14.67;99763.31;5034815;28;20041;-48
2022/06/25 08:40:47;;;;;;;5.78;4.43;;;;;;;47.10;14.30;99765.28;5029121;28;20041;-46
2022/06/25 08:43:13;;;;;;;7.63;3.88;;;;;;;47.30;14.24;99767.03;5062827;28;20577;-49
2022/06/25 08:45:40;;;;;;;9.70;8.63;;;;;;;47.79;14.14;99755.72;5030036;28;20054;-47
2022/06/25 08:48:10;;;;;;;8.30;4.55;;;;;;;46.04;15.43;99758.59;5030811;28;20045;-50
2022/06/25 08:50:37;;;;;;;9.65;4.82;;;;;;;44.16;17.16;99749.72;5029928;28;20038;-49
2022/06/25 08:53:03;;;;;;;4.82;4.35;;;;;;;45.31;16.11;99744.56;5030744;28;20425;-47
2022/06/25 08:55:33;;;;;;;11.88;6.55;;;;;;;46.64;15.20;99749.13;5029212;28;20509;-50
2022/06/25 08:58:00;;;;;;;8.18;6.90;;;;;;;46.33;14.92;99750.44;5029499;28;20052;-52
2022/06/25 09:00:30;;;;;;;9.38;6.57;;;;;;;46.83;14.66;99732.75;5029910;28;20037;-48
2022/06/25 09:02:56;;;;;;;8.80;4.72;;;;;;;46.71;14.55;99737.81;5030324;28;20048;-48
2022/06/25 09:05:33;;;;;;;9.45;5.50;;;;;;;44.68;16.40;99743.25;5029921;28;20034;-47
2022/06/25 09:08:08;;;;;;;;;;;;;;;45.34;15.93;99741.25;5029512;28;20049;-52
2022/06/25 09:10:35;;;;;;;4.70;4.30;;;;;;;46.53;14.44;99746.75;5028566;28;19987;-46
2022/06/25 09:13:04;;;;;;;4.88;4.47;;;;;;;47.06;14.00;99744.91;5021072;28;20041;-47
2022/06/25 09:15:39;;;;;;;5.30;3.80;;;;;;;47.43;14.09;99736.81;5029028;28;20033;-48
2022/06/25 09:18:10;;;;;;;8.00;5.90;;;;;;;47.61;14.34;99740.75;5026709;28;20045;-46
2022/06/25 09:20:57;;;;;;;8.63;5.82;;;;;;;46.11;15.27;99734.38;5031727;28;20041;-44
2022/06/25 09:23:23;;;;;;;14.35;7.00;;;;;;;46.33;14.83;99737.53;5047119;28;20044;-46
2022/06/25 09:26:09;;;;;;;11.90;7.28;;;;;;;47.09;14.41;99745.19;5032943;28;20090;-48
2022/06/25 09:28:37;;;;;;;7.70;6.13;;;;;;;47.72;13.50;99747.81;5029190;28;20589;-44
2022/06/25 09:31:03;;;;;;;7.22;4.78;;;;;;;48.05;13.44;99731.41;5029557;28;20069;-46
2022/06/25 09:33:30;;;;;;;6.47;3.80;;;;;;;47.19;13.82;99745.06;5061747;28;20064;-43
2022/06/25 09:35:56;;;;;;;11.73;4.93;;;;;;;45.18;15.42;99739.63;5029385;28;20041;-45
2022/06/25 09:38:23;;;;;;;9.35;3.78;;;;;;;42.87;17.20;99741.34;5060963;28;20064;-44
2022/06/25 09:40:49;;;;;;;5.60;3.30;;;;;;;41.49;18.07;99737.34;5060258;28;20068;-46
2022/06/25 09:43:17;;;;;;;5.57;4.22;;;;;;;42.39;17.30;99736.81;5018185;28;20091;-45
2022/06/25 09:45:48;;;;;;;8.32;4.00;;;;;;;43.78;16.16;99731.78;5020892;28;20045;-45
2022/06/25 09:48:24;;;;;;;7.78;4.07;;;;;;;44.70;15.60;99730.88;5018003;28;20035;-46
2022/06/25 09:51:29;;;;;;;5.22;4.82;;;;;;;45.52;14.98;99740.69;5058868;28;20045;-42
2022/06/25 09:53:58;;;;;;;16.42;5.28;;;;;;;46.00;14.49;99745.72;5054557;28;20120;-46
2022/06/25 09:56:25;;;;;;;4.47;4.07;;;;;;;46.00;14.61;99737.47;5025454;28;20124;-46
2022/06/25 09:58:51;;;;;;;6.45;4.07;;;;;;;46.13;14.62;99736.81;5022627;28;20413;-45
2022/06/25 10:01:23;;;;;;;5.30;4.80;;;;;;;46.61;14.35;99744.22;5038385;28;20136;-45
2022/06/25 10:03:50;;;;;;;7.53;6.78;;;;;;;47.08;13.72;99724.25;5024944;28;20450;-44
2022/06/25 10:06:18;;;;;;;5.68;4.43;;;;;;;47.29;13.54;99735.06;5023898;28;20109;-45
2022/06/25 10:08:55;;;;;;;5.68;4.10;;;;;;;47.12;13.47;99733.56;5029178;28;20045;-47
2022/06/25 10:11:26;;;;;;;6.30;5.70;;;;;;;47.04;13.71;99722.38;5055813;28;20041;-45
2022/06/25 10:13:52;;;;;;;6.55;5.75;;;;;;;47.24;13.91;99721.34;5019500;28;20069;-45
2022/06/25 10:16:19;;;;;;;11.17;5.70;;;;;;;47.64;13.64;99740.19;5015825;28;20041;-50
2022/06/25 10:18:45;;;;;;;6.30;5.70;;;;;;;47.68;13.71;99740.44;5020797;28;20045;-47
2022/06/25 10:21:12;;;;;;;6.03;5.25;;;;;;;47.64;13.45;99722.81;5033668;28;20416;-50
2022/06/25 10:23:39;;;;;;;6.15;5.32;;;;;;;47.55;13.18;99733.66;5027521;28;20055;-48
2022/06/25 10:26:05;;;;;;;6.90;5.20;;;;;;;47.54;13.33;99738.34;5024861;28;20033;-48
2022/06/25 10:28:34;;;;;;;5.65;4.50;;;;;;;47.57;13.46;99728.69;5024075;28;20432;-49
2022/06/25 10:31:04;;;;;;;6.70;4.35;;;;;;;47.23;13.77;99715.00;5023787;28;20038;-48
2022/06/25 10:33:36;;;;;;;6.60;5.72;;;;;;;47.01;13.98;99723.78;5020932;28;20131;-48
2022/06/25 10:36:06;;;;;;;4.97;3.80;;;;;;;45.68;14.48;99713.97;5013421;28;20072;-50
2022/06/25 10:38:31;;;;;;;5.70;5.15;;;;;;;44.70;15.13;99708.16;5014132;28;20042;-51
2022/06/25 10:43:58;;;;;;;6.22;4.80;;;;;;;45.17;15.34;99716.06;5026698;28;20041;-49
2022/06/25 10:46:28;;;;;;;7.00;4.90;;;;;;;46.15;14.43;99721.69;5025416;28;20045;-52
2022/06/25 10:49:17;;;;;;;5.20;4.75;;;;;;;46.90;14.20;99722.19;5023771;28;20506;-52
2022/06/25 10:51:43;;;;;;;8.23;7.20;;;;;;;47.22;13.62;99712.53;5024176;28;20037;-49
2022/06/25 10:54:25;;;;;;;7.72;7.03;;;;;;;47.31;13.72;99717.16;5019829;28;20536;-55
2022/06/25 10:56:56;;;;;;;5.57;5.18;;;;;;;47.49;13.68;99705.34;5024661;28;20052;-51
2022/06/25 10:59:55;;;;;;;9.15;5.22;;;;;;;47.69;13.42;99704.28;5026486;28;20573;-50
2022/06/25 11:02:23;;;;;;;5.40;4.90;;;;;;;47.91;12.93;99711.97;5027163;28;20071;-48
2022/06/25 11:04:54;;;;;;;9.93;8.63;;;;;;;47.90;13.16;99708.38;5023868;28;20114;-48
2022/06/25 11:07:22;;;;;;;7.72;7.05;;;;;;;47.87;12.96;99702.66;5023610;28;20060;-46
2022/06/25 11:09:58;;;;;;;5.70;5.15;;;;;;;47.64;13.11;99707.09;5017648;28;20042;-47
2022/06/25 11:12:25;;;;;;;5.00;4.60;;;;;;;47.60;12.75;99704.09;5026134;28;20567;-52
2022/06/25 11:15:06;;;;;;;5.70;4.80;;;;;;;47.47;12.97;99706.78;5032783;28;20081;-48
2022/06/25 11:17:32;;;;;;;4.78;4.25;;;;;;;47.53;12.86;99700.88;5024953;28;20516;-52
2022/06/25 11:20:07;;;;;;;6.07;4.50;;;;;;;47.72;12.76;99708.41;5021828;28;20129;-54
2022/06/25 11:22:33;;;;;;;5.38;4.75;;;;;;;47.97;12.58;99697.00;5027270;28;20037;-48
2022/06/25 11:30:28;;;;;;;20.45;12.43;;;;;;;48.59;12.90;99701.28;5025304;28;20037;-52
2022/06/25 11:32:53;;;;;;;25.37;18.07;;;;;;;48.52;12.65;99713.84;5024247;28;20048;-49
2022/06/25 11:35:19;;;;;;;42.80;27.67;;;;;;;48.45;12.79;99702.38;5025285;28;20417;-48
2022/06/25 11:37:45;;;;;;;12.20;5.55;;;;;;;48.24;12.71;99707.38;5026586;28;20073;-49
2022/06/25 11:40:15;;;;;;;5.17;4.73;;;;;;;48.33;12.37;99705.56;5026043;28;20529;-50
2022/06/25 11:42:42;;;;;;;12.77;11.45;;;;;;;48.47;12.31;99705.66;5005044;28;20157;-51
2022/06/25 11:45:09;;;;;;;9.35;7.05;;;;;;;48.56;12.12;99710.19;5025935;28;20136;-49
2022/06/25 11:47:35;;;;;;;6.07;5.57;;;;;;;48.58;12.19;99707.09;5028327;28;20127;-52